Time;durP1;ratioP1;P1;durP2;ratioP2;P2;SDS_P1;SDS_P2;PMS_P1;PMS_P2;Temp;Humidity;BMP_temperature;BMP_pressure;BME280_temperature;BME280_humidity;BME280_pressure;Samples;Min_cycle;Max_cycle;Signal;HPM_P1;HPM_P2
2022/06/16 00:00:15;;;;;;;7.03;3.40;;;18.90;59.10;;;;;;5001744;28;20045;-83
2022/06/16 00:02:47;;;;;;;8.77;2.80;;;18.80;57.50;;;;;;5007309;28;20038;-82
2022/06/16 00:05:19;;;;;;;6.45;2.80;;;18.90;60.40;;;;;;5027318;28;20026;-81
2022/06/16 00:07:45;;;;;;;4.10;2.03;;;18.90;60.30;;;;;;5026926;28;20129;-83
2022/06/16 00:10:12;;;;;;;4.75;2.60;;;18.90;60.00;;;;;;5008979;28;20036;-83
2022/06/16 00:12:39;;;;;;;3.92;1.90;;;18.90;59.50;;;;;;5029928;28;20029;-81
2022/06/16 00:15:07;;;;;;;4.22;1.92;;;18.90;60.90;;;;;;5031186;28;20030;-82
2022/06/16 00:17:34;;;;;;;4.10;2.00;;;18.80;61.10;;;;;;5010828;28;20018;-81
2022/06/16 00:20:01;;;;;;;5.00;2.22;;;18.80;61.00;;;;;;5013970;28;20041;-82
2022/06/16 00:22:28;;;;;;;4.97;2.30;;;18.70;60.00;;;;;;5004337;28;20039;-82
2022/06/16 00:24:54;;;;;;;7.13;2.63;;;18.80;59.50;;;;;;4992055;28;20030;-81
2022/06/16 00:27:22;;;;;;;3.47;1.80;;;18.80;58.30;;;;;;4995001;28;20037;-83
2022/06/16 00:29:47;;;;;;;4.05;1.50;;;18.70;60.30;;;;;;5009283;28;20022;-82
2022/06/16 00:32:13;;;;;;;9.18;3.33;;;18.70;61.90;;;;;;5009525;28;20100;-80
2022/06/16 00:34:38;;;;;;;6.78;2.42;;;18.60;59.80;;;;;;5009026;28;20026;-81
2022/06/16 00:37:05;;;;;;;5.70;2.35;;;18.60;59.20;;;;;;5026586;28;20037;-82
2022/06/16 00:39:30;;;;;;;5.22;2.58;;;18.60;60.20;;;;;;5011981;28;20050;-83
2022/06/16 00:42:05;;;;;;;4.05;2.00;;;18.50;59.10;;;;;;5025992;28;20030;-83
2022/06/16 00:44:31;;;;;;;4.88;2.38;;;18.50;61.40;;;;;;5010107;28;20030;-82
2022/06/16 00:46:56;;;;;;;5.93;2.17;;;18.50;61.70;;;;;;5008993;28;20057;-82
2022/06/16 00:49:23;;;;;;;4.43;2.30;;;18.50;60.00;;;;;;5026993;28;20824;-84
2022/06/16 00:51:56;;;;;;;6.38;2.20;;;18.40;60.00;;;;;;5025387;28;20033;-81
2022/06/16 00:54:30;;;;;;;5.03;2.47;;;18.30;61.00;;;;;;5026340;28;20026;-82
2022/06/16 00:57:04;;;;;;;4.95;1.83;;;18.30;61.10;;;;;;5023253;28;20113;-83
2022/06/16 00:59:31;;;;;;;7.70;2.70;;;18.20;62.60;;;;;;5022033;28;20022;-84
2022/06/16 01:02:06;;;;;;;5.88;2.28;;;18.20;59.90;;;;;;5024635;28;20022;-83
2022/06/16 01:04:53;;;;;;;6.60;2.78;;;18.10;59.20;;;;;;5025048;28;20056;-83
2022/06/16 01:07:35;;;;;;;4.72;2.10;;;18.00;60.80;;;;;;5025677;28;20044;-82
2022/06/16 01:10:02;;;;;;;6.72;2.53;;;18.00;60.60;;;;;;5008334;28;20040;-82
2022/06/16 01:15:54;;;;;;;3.03;1.38;;;17.90;60.40;;;;;;5032585;28;20404;-83
2022/06/16 01:18:30;;;;;;;10.30;3.90;;;17.90;62.70;;;;;;5024487;28;20151;-83
2022/06/16 01:21:14;;;;;;;6.70;3.22;;;17.90;60.40;;;;;;5005307;28;20105;-84
2022/06/16 01:24:01;;;;;;;8.35;3.15;;;17.90;60.40;;;;;;5021228;28;20144;-83
2022/06/16 01:27:03;;;;;;;4.10;1.60;;;17.80;61.00;;;;;;5021012;28;20037;-84
2022/06/16 01:29:41;;;;;;;5.80;2.67;;;17.80;62.70;;;;;;4975624;28;20025;-83
2022/06/16 01:32:25;;;;;;;6.35;2.88;;;17.80;61.10;;;;;;5010260;28;20058;-84
2022/06/16 01:35:16;;;;;;;5.25;2.97;;;17.70;61.50;;;;;;5021248;28;20022;-83
2022/06/16 01:37:53;;;;;;;6.13;2.63;;;17.70;60.60;;;;;;5017640;28;20037;-83
2022/06/16 01:40:39;;;;;;;5.50;2.88;;;17.60;60.20;;;;;;5003340;28;20021;-83
2022/06/16 01:43:16;;;;;;;6.63;3.08;;;17.60;61.00;;;;;;5002305;28;20038;-83
2022/06/16 01:45:59;;;;;;;4.40;2.75;;;17.60;60.30;;;;;;5019381;28;20025;-83
2022/06/16 01:48:28;;;;;;;6.53;3.00;;;17.50;60.70;;;;;;5002137;28;20496;-83
2022/06/16 01:51:04;;;;;;;3.83;2.33;;;17.50;60.40;;;;;;5001587;28;20535;-82
2022/06/16 01:53:49;;;;;;;5.35;3.45;;;17.50;62.40;;;;;;5005633;28;20034;-82
2022/06/16 01:56:26;;;;;;;10.00;4.18;;;17.50;60.90;;;;;;5026557;28;20093;-83
2022/06/16 01:59:02;;;;;;;6.85;3.03;;;17.40;60.50;;;;;;5019806;28;20046;-84
2022/06/16 02:01:33;;;;;;;7.57;3.47;;;17.30;61.10;;;;;;5019422;28;20034;-83
2022/06/16 02:04:06;;;;;;;9.40;3.67;;;17.20;61.30;;;;;;5019895;28;20018;-83
2022/06/16 02:06:36;;;;;;;6.15;2.95;;;17.20;60.80;;;;;;5001675;28;20036;-83
2022/06/16 02:09:10;;;;;;;5.50;2.28;;;17.10;61.80;;;;;;5018968;28;20058;-82
2022/06/16 02:11:44;;;;;;;7.15;2.58;;;17.10;63.60;;;;;;5018129;28;20017;-83
2022/06/16 02:14:40;;;;;;;6.07;3.08;;;17.10;63.90;;;;;;5001788;28;20029;-83
2022/06/16 02:17:08;;;;;;;5.85;2.42;;;17.00;63.30;;;;;;4994387;28;21322;-83
2022/06/16 02:19:34;;;;;;;7.35;3.83;;;17.10;65.70;;;;;;5034345;28;20162;-84
2022/06/16 02:22:02;;;;;;;6.28;2.80;;;17.00;63.70;;;;;;5001292;28;20464;-82
2022/06/16 02:24:30;;;;;;;9.50;2.97;;;17.00;64.60;;;;;;5002282;28;20109;-83
2022/06/16 02:27:00;;;;;;;7.97;3.97;;;16.90;64.10;;;;;;5004841;28;20044;-84
2022/06/16 02:29:29;;;;;;;;;;;16.90;63.80;;;;;;5006497;28;20025;-82
2022/06/16 02:32:22;;;;;;;7.18;3.17;;;16.90;63.70;;;;;;5021700;28;20415;-81
2022/06/16 02:35:08;;;;;;;7.22;3.55;;;16.80;62.50;;;;;;5011161;28;20077;-82
2022/06/16 02:38:07;;;;;;;7.97;3.85;;;16.70;62.40;;;;;;5020738;28;20018;-83
2022/06/16 02:41:02;;;;;;;6.78;3.60;;;16.70;62.50;;;;;;4982590;28;20018;-84
2022/06/16 02:43:46;;;;;;;5.72;3.00;;;16.70;62.50;;;;;;5017630;28;20101;-82
2022/06/16 02:46:38;;;;;;;8.20;3.33;;;16.60;63.10;;;;;;5018914;28;20043;-83
2022/06/16 02:49:25;;;;;;;6.47;3.55;;;16.60;63.90;;;;;;4996533;28;20033;-83
2022/06/16 02:52:01;;;;;;;6.28;3.55;;;16.60;63.30;;;;;;5000933;28;20037;-82
2022/06/16 02:54:36;;;;;;;6.28;3.30;;;16.60;63.60;;;;;;5017680;28;20121;-83
2022/06/16 02:57:25;;;;;;;7.07;3.28;;;16.50;63.90;;;;;;5001332;28;20025;-83
2022/06/16 03:00:01;;;;;;;11.73;4.35;;;16.50;63.50;;;;;;5019206;28;20037;-82
2022/06/16 03:02:29;;;;;;;10.10;4.05;;;16.50;63.60;;;;;;5018728;28;20041;-83
2022/06/16 03:04:57;;;;;;;6.18;2.72;;;16.50;63.40;;;;;;5001082;28;20812;-83
2022/06/16 03:07:24;;;;;;;7.82;2.90;;;16.50;64.60;;;;;;5001881;28;20087;-82
2022/06/16 03:09:51;;;;;;;6.55;2.80;;;16.40;64.20;;;;;;5017664;28;20030;-84
2022/06/16 03:12:18;;;;;;;6.82;3.20;;;16.40;64.70;;;;;;4999972;28;20030;-83
2022/06/16 03:14:44;;;;;;;6.63;3.22;;;16.40;65.40;;;;;;5000459;28;20021;-83
2022/06/16 03:17:12;;;;;;;8.27;3.30;;;16.40;65.40;;;;;;5017033;28;20026;-82
2022/06/16 03:19:37;;;;;;;6.40;3.83;;;16.40;64.90;;;;;;5000201;28;20037;-84
2022/06/16 03:22:12;;;;;;;5.65;2.67;;;16.40;64.80;;;;;;5000182;28;20022;-83
2022/06/16 03:24:40;;;;;;;9.52;4.57;;;16.40;64.80;;;;;;4993091;28;20022;-84
2022/06/16 03:27:10;;;;;;;7.78;4.00;;;16.30;63.70;;;;;;4998521;28;20488;-83
2022/06/16 03:29:35;;;;;;;5.72;3.67;;;16.30;63.50;;;;;;5013222;28;20041;-84
2022/06/16 03:32:01;;;;;;;7.75;4.20;;;16.30;63.40;;;;;;4999289;28;20045;-83
2022/06/16 03:34:30;;;;;;;9.02;3.97;;;16.30;63.20;;;;;;5018752;28;20037;-83
2022/06/16 03:36:56;;;;;;;10.32;3.90;;;16.20;63.50;;;;;;5018214;28;20405;-83
2022/06/16 03:39:21;;;;;;;11.52;4.97;;;16.20;63.60;;;;;;5001406;28;20014;-82
2022/06/16 03:41:47;;;;;;;9.93;4.35;;;16.10;63.80;;;;;;5002356;28;20084;-84
2022/06/16 03:44:13;;;;;;;10.98;4.40;;;16.10;63.90;;;;;;5000525;28;20054;-84
2022/06/16 03:46:39;;;;;;;10.40;4.55;;;16.10;64.70;;;;;;5001524;28;20022;-82
2022/06/16 03:49:05;;;;;;;6.97;3.50;;;16.10;64.00;;;;;;5007181;28;20493;-82
2022/06/16 03:51:31;;;;;;;7.82;3.92;;;16.10;63.90;;;;;;5023975;28;20041;-83
2022/06/16 03:54:03;;;;;;;7.07;2.67;;;16.10;64.00;;;;;;5019807;28;20559;-82
2022/06/16 03:56:31;;;;;;;4.78;2.40;;;16.10;64.50;;;;;;5001143;28;20045;-84
2022/06/16 03:58:57;;;;;;;5.53;3.05;;;16.10;65.40;;;;;;5019308;28;20050;-84
2022/06/16 04:01:24;;;;;;;9.13;4.00;;;16.10;65.10;;;;;;5000323;28;20018;-83
2022/06/16 04:04:00;;;;;;;8.15;4.07;;;16.10;64.70;;;;;;5015191;28;20035;-83
2022/06/16 04:06:31;;;;;;;7.57;3.75;;;16.10;64.50;;;;;;4999416;28;20018;-83
2022/06/16 04:09:00;;;;;;;9.70;4.22;;;16.10;64.30;;;;;;4995199;28;20031;-83
2022/06/16 04:11:29;;;;;;;6.78;3.50;;;16.10;64.20;;;;;;5015860;28;20026;-83
2022/06/16 04:14:07;;;;;;;9.45;3.78;;;16.10;64.50;;;;;;4999481;28;20820;-82
2022/06/16 04:16:38;;;;;;;5.57;3.55;;;16.10;64.80;;;;;;5021940;28;20040;-84
2022/06/16 04:19:04;;;;;;;9.25;2.78;;;16.10;65.00;;;;;;5017656;28;20139;-84
2022/06/16 04:21:30;;;;;;;5.97;3.25;;;16.10;64.90;;;;;;4998038;28;20022;-83
2022/06/16 04:23:58;;;;;;;6.18;3.67;;;16.00;64.80;;;;;;5018330;28;20183;-84
2022/06/16 04:26:24;;;;;;;8.05;3.58;;;16.10;65.30;;;;;;4999774;28;20022;-83
2022/06/16 04:28:50;;;;;;;8.48;3.50;;;16.10;65.20;;;;;;5001692;28;20041;-84
2022/06/16 04:31:16;;;;;;;6.00;3.28;;;16.00;65.10;;;;;;5000228;28;20052;-83
2022/06/16 04:33:41;;;;;;;6.50;3.25;;;16.00;66.00;;;;;;5000331;28;20049;-83
2022/06/16 04:36:12;;;;;;;6.38;3.53;;;16.00;65.70;;;;;;5007298;28;20021;-83
2022/06/16 04:38:41;;;;;;;6.78;4.15;;;16.00;65.90;;;;;;5001288;28;20057;-83
2022/06/16 04:41:08;;;;;;;7.57;4.03;;;16.00;66.20;;;;;;5022529;28;20030;-82
2022/06/16 04:43:33;;;;;;;8.23;3.55;;;16.00;65.90;;;;;;5007277;28;20029;-84
2022/06/16 04:46:04;;;;;;;10.43;4.82;;;16.00;65.70;;;;;;5025892;28;20037;-83
2022/06/16 04:48:32;;;;;;;8.82;4.18;;;16.00;65.80;;;;;;5029082;28;20014;-84
2022/06/16 04:51:00;;;;;;;8.50;3.92;;;16.10;65.80;;;;;;5005250;28;20058;-84
2022/06/16 04:53:25;;;;;;;8.80;3.95;;;16.10;65.90;;;;;;4999920;28;20493;-83
2022/06/16 04:55:56;;;;;;;7.85;4.13;;;16.20;65.90;;;;;;5000642;28;20028;-83
2022/06/16 04:58:23;;;;;;;9.85;3.63;;;16.30;66.00;;;;;;5023496;28;20067;-83
2022/06/16 05:00:51;;;;;;;7.18;3.67;;;16.40;65.80;;;;;;5006128;28;20022;-84
2022/06/16 05:03:18;;;;;;;10.13;4.70;;;16.50;65.50;;;;;;5023764;28;20033;-83
2022/06/16 05:05:47;;;;;;;6.88;3.70;;;16.50;65.60;;;;;;5022863;28;20037;-83
2022/06/16 05:08:17;;;;;;;8.55;3.92;;;16.50;65.60;;;;;;5004016;28;20033;-83
2022/06/16 05:10:44;;;;;;;7.90;3.22;;;16.50;65.80;;;;;;5002843;28;20034;-83
2022/06/16 05:13:10;;;;;;;3.72;1.67;;;16.60;65.90;;;;;;5019681;28;20041;-83
2022/06/16 05:15:36;;;;;;;6.63;3.42;;;16.70;66.00;;;;;;5019763;28;20029;-83
2022/06/16 05:18:04;;;;;;;4.40;2.75;;;16.80;65.70;;;;;;5004204;28;20026;-83
2022/06/16 05:20:30;;;;;;;5.47;2.95;;;16.90;65.40;;;;;;5019278;28;20030;-84
2022/06/16 05:22:55;;;;;;;5.15;2.58;;;17.00;65.40;;;;;;5001372;28;20018;-84
2022/06/16 05:25:21;;;;;;;8.88;3.88;;;17.00;65.30;;;;;;5001827;28;20021;-83
2022/06/16 05:27:47;;;;;;;9.18;3.38;;;17.10;65.10;;;;;;5019218;28;20102;-83
2022/06/16 05:30:14;;;;;;;5.22;2.35;;;17.10;64.90;;;;;;5001373;28;20072;-84
2022/06/16 05:32:41;;;;;;;6.07;2.97;;;17.20;64.90;;;;;;5020227;28;20045;-84
2022/06/16 05:35:07;;;;;;;7.80;3.28;;;17.40;64.70;;;;;;5021691;28;20025;-83
2022/06/16 05:37:33;;;;;;;6.85;2.67;;;17.50;64.40;;;;;;5019349;28;20037;-84
2022/06/16 05:39:59;;;;;;;6.25;3.22;;;17.50;64.10;;;;;;5004998;28;20022;-83
2022/06/16 05:42:24;;;;;;;7.45;3.00;;;17.60;64.20;;;;;;5001801;28;20465;-84
2022/06/16 05:44:50;;;;;;;5.90;2.92;;;17.60;63.90;;;;;;5003101;28;20025;-84
2022/06/16 05:47:16;;;;;;;5.10;2.40;;;17.70;64.00;;;;;;5005236;28;20029;-82
2022/06/16 05:49:42;;;;;;;4.00;1.83;;;17.80;63.90;;;;;;5021106;28;20077;-83
2022/06/16 05:52:18;;;;;;;5.15;2.40;;;17.90;63.60;;;;;;5018658;28;20037;-83
2022/06/16 05:54:45;;;;;;;4.72;1.90;;;17.90;63.30;;;;;;5022475;28;20026;-83
2022/06/16 05:57:11;;;;;;;6.15;1.85;;;18.00;62.50;;;;;;5000480;28;20027;-82
2022/06/16 05:59:38;;;;;;;4.60;1.85;;;18.00;61.80;;;;;;5000783;28;20025;-81
2022/06/16 06:02:07;;;;;;;4.45;1.77;;;18.10;62.30;;;;;;5002580;28;20085;-83
2022/06/16 06:04:33;;;;;;;5.38;1.63;;;18.10;61.90;;;;;;5003959;28;20093;-83
2022/06/16 06:07:00;;;;;;;4.45;1.48;;;18.20;61.50;;;;;;4998840;28;20049;-82
2022/06/16 06:18:10;;;;;;;4.50;1.50;;;18.60;60.30;;;;;;4999646;28;19913;-84
2022/06/16 06:20:37;;;;;;;2.15;0.90;;;18.80;59.60;;;;;;5012323;28;20206;-79
2022/06/16 06:23:02;;;;;;;6.22;1.60;;;18.90;60.80;;;;;;4996192;28;20028;-79
2022/06/16 06:25:30;;;;;;;4.85;2.05;;;19.00;60.10;;;;;;5012898;28;20439;-79
2022/06/16 06:27:56;;;;;;;3.58;1.63;;;19.10;59.60;;;;;;5012969;28;20470;-79
2022/06/16 06:30:26;;;;;;;5.47;1.58;;;19.10;58.80;;;;;;5014120;28;20018;-79
2022/06/16 06:32:52;;;;;;;4.68;1.40;;;19.20;57.70;;;;;;5013111;28;20160;-79
2022/06/16 06:35:19;;;;;;;2.90;1.38;;;19.40;58.80;;;;;;5006559;28;20740;-83
2022/06/16 06:37:46;;;;;;;4.38;1.40;;;19.40;56.50;;;;;;4996621;28;20018;-79
2022/06/16 06:40:30;;;;;;;7.22;1.77;;;19.50;55.70;;;;;;4996409;28;20022;-79
2022/06/16 06:42:57;;;;;;;3.85;1.00;;;19.50;56.40;;;;;;4996452;28;20703;-80
2022/06/16 06:45:23;;;;;;;4.28;1.13;;;19.40;56.30;;;;;;5015983;28;20355;-81
2022/06/16 06:47:50;;;;;;;6.40;2.25;;;19.50;57.60;;;;;;5014706;28;20018;-77
2022/06/16 06:50:24;;;;;;;3.70;1.35;;;19.50;54.90;;;;;;5012003;28;20038;-81
2022/06/16 06:52:51;;;;;;;4.53;1.10;;;19.70;54.90;;;;;;5015388;28;20036;-79
2022/06/16 06:55:18;;;;;;;5.22;1.55;;;19.70;53.10;;;;;;5009785;28;20033;-81
2022/06/16 06:57:44;;;;;;;2.45;1.10;;;19.80;53.50;;;;;;5014647;28;20022;-80
2022/06/16 07:00:15;;;;;;;4.38;1.33;;;20.00;53.40;;;;;;5014759;28;20017;-81
2022/06/16 07:02:41;;;;;;;3.20;0.95;;;20.20;55.40;;;;;;5013925;28;20026;-79
2022/06/16 07:05:08;;;;;;;7.80;1.45;;;20.40;56.70;;;;;;5007476;28;20037;-80
2022/06/16 07:07:35;;;;;;;4.18;1.17;;;20.50;56.70;;;;;;5018175;28;20477;-80
2022/06/16 07:10:00;;;;;;;5.47;1.05;;;20.50;54.30;;;;;;5015682;28;20056;-80
2022/06/16 07:12:26;;;;;;;4.93;1.23;;;20.60;56.60;;;;;;4998974;28;20073;-82
2022/06/16 07:14:54;;;;;;;2.75;1.20;;;20.80;56.90;;;;;;5021538;28;20052;-83
2022/06/16 07:17:21;;;;;;;5.55;1.30;;;21.00;55.60;;;;;;5021562;28;20034;-79
2022/06/16 07:19:49;;;;;;;5.47;1.33;;;21.00;54.50;;;;;;5011489;28;20053;-82
2022/06/16 07:22:14;;;;;;;4.43;1.35;;;21.00;55.40;;;;;;5008791;28;20030;-80
2022/06/16 07:24:41;;;;;;;7.30;1.75;;;21.00;55.90;;;;;;5003051;28;20685;-78
2022/06/16 07:27:08;;;;;;;12.02;1.95;;;21.00;54.90;;;;;;5006713;28;20037;-81
2022/06/16 07:29:34;;;;;;;5.70;1.08;;;21.10;56.00;;;;;;5011465;28;20037;-81
2022/06/16 07:31:59;;;;;;;5.43;1.20;;;21.10;54.40;;;;;;5008058;28;20042;-81
2022/06/16 07:34:26;;;;;;;6.13;1.60;;;21.20;54.70;;;;;;5008303;28;20080;-82
2022/06/16 07:36:52;;;;;;;4.85;1.48;;;21.20;53.20;;;;;;4993917;28;20025;-82
2022/06/16 07:39:20;;;;;;;5.97;1.50;;;21.30;54.10;;;;;;5009711;28;20030;-82
2022/06/16 07:41:55;;;;;;;5.43;1.20;;;21.40;54.50;;;;;;5015253;28;20022;-79
2022/06/16 07:44:21;;;;;;;6.75;1.45;;;21.40;53.50;;;;;;5013804;28;20026;-79
2022/06/16 07:47:03;;;;;;;7.93;1.35;;;21.40;55.20;;;;;;5006994;28;20026;-80
2022/06/16 07:49:33;;;;;;;3.90;1.30;;;21.40;54.60;;;;;;5007487;28;20025;-79
2022/06/16 07:52:01;;;;;;;;;;;21.40;51.70;;;;;;5013180;28;20743;-80
2022/06/16 07:54:30;;;;;;;4.60;1.20;;;21.50;54.20;;;;;;5015312;28;19898;-81
2022/06/16 07:57:01;;;;;;;2.78;0.90;;;21.60;56.10;;;;;;5015234;28;20028;-80
2022/06/16 07:59:28;;;;;;;;;;;21.80;54.40;;;;;;5009697;28;20396;-78
2022/06/16 08:01:54;;;;;;;5.28;1.45;;;21.90;54.50;;;;;;5017659;28;19916;-83
2022/06/16 08:04:21;;;;;;;3.95;1.25;;;22.10;51.90;;;;;;5012286;28;20030;-82
2022/06/16 08:06:52;;;;;;;5.45;1.80;;;22.20;52.60;;;;;;4991154;28;20050;-81
2022/06/16 08:09:23;;;;;;;4.15;1.20;;;22.20;52.10;;;;;;5009304;28;20109;-82
2022/06/16 08:12:03;;;;;;;6.50;1.42;;;22.40;51.60;;;;;;5011761;28;20032;-84
2022/06/16 08:14:35;;;;;;;;;;;22.40;54.30;;;;;;5006192;28;20026;-83
2022/06/16 08:17:04;;;;;;;4.78;1.02;;;22.60;53.30;;;;;;5011947;28;19960;-82
2022/06/16 08:19:34;;;;;;;4.25;0.95;;;22.80;53.00;;;;;;5014609;28;20049;-81
2022/06/16 08:22:00;;;;;;;5.82;1.42;;;23.00;52.80;;;;;;4991868;28;20072;-82
2022/06/16 08:24:31;;;;;;;4.60;1.38;;;23.10;52.50;;;;;;4992562;28;20468;-83
2022/06/16 08:26:57;;;;;;;4.68;1.58;;;23.20;51.30;;;;;;5000559;28;20037;-83
2022/06/16 08:29:24;;;;;;;4.72;1.05;;;23.20;52.10;;;;;;5002824;28;20048;-83
2022/06/16 08:31:50;;;;;;;6.03;1.60;;;23.20;52.10;;;;;;4994238;28;20084;-81
2022/06/16 08:34:15;;;;;;;5.18;1.58;;;23.40;50.90;;;;;;4990661;28;20080;-80
2022/06/16 08:36:41;;;;;;;8.45;2.40;;;23.30;47.50;;;;;;5008999;28;20017;-81
2022/06/16 08:39:13;;;;;;;3.55;1.00;;;23.20;51.70;;;;;;4994832;28;20033;-83
2022/06/16 08:41:49;;;;;;;3.42;1.23;;;23.30;51.40;;;;;;5010815;28;20022;-79
2022/06/16 08:44:24;;;;;;;3.67;1.02;;;23.50;47.20;;;;;;4992236;28;20117;-79
2022/06/16 08:47:02;;;;;;;6.85;1.73;;;23.80;51.90;;;;;;4993154;28;20033;-82
2022/06/16 08:49:39;;;;;;;4.00;1.15;;;23.90;46.90;;;;;;5009727;28;20037;-79
2022/06/16 08:52:19;;;;;;;4.95;1.15;;;24.10;44.50;;;;;;4991711;28;21178;-78
2022/06/16 08:54:57;;;;;;;4.22;1.40;;;24.30;49.30;;;;;;4994574;28;20022;-80
2022/06/16 08:57:49;;;;;;;6.22;1.33;;;24.50;50.00;;;;;;4999305;28;20037;-81
2022/06/16 09:00:26;;;;;;;3.03;0.98;;;24.50;50.40;;;;;;5011396;28;20038;-80
2022/06/16 09:02:59;;;;;;;3.80;1.27;;;24.60;49.00;;;;;;4992192;28;20029;-77
2022/06/16 09:05:56;;;;;;;4.38;1.50;;;24.60;48.40;;;;;;4991603;28;20034;-79
2022/06/16 09:08:56;;;;;;;5.55;1.50;;;24.60;49.30;;;;;;4991036;28;20460;-79
2022/06/16 09:11:35;;;;;;;6.97;1.50;;;24.60;49.70;;;;;;5009439;28;20100;-79
2022/06/16 09:17:41;;;;;;;2.92;1.00;;;24.60;44.80;;;;;;5011054;28;20045;-78
2022/06/16 09:20:19;;;;;;;3.40;1.00;;;24.70;46.20;;;;;;5009080;28;20370;-78
2022/06/16 09:23:21;;;;;;;6.15;1.80;;;24.70;47.70;;;;;;5008962;28;20026;-78
2022/06/16 09:26:07;;;;;;;3.42;1.35;;;24.80;47.80;;;;;;5006831;28;20104;-80
2022/06/16 09:28:43;;;;;;;3.15;1.13;;;25.10;48.50;;;;;;5007246;28;20105;-79
2022/06/16 09:31:18;;;;;;;4.72;1.65;;;25.20;45.80;;;;;;4988257;28;20025;-77
2022/06/16 09:33:57;;;;;;;3.60;1.20;;;25.30;48.00;;;;;;4986270;28;20500;-81
2022/06/16 09:36:34;;;;;;;6.03;1.55;;;25.30;48.40;;;;;;5011284;28;20653;-79
2022/06/16 09:39:09;;;;;;;3.63;1.60;;;25.30;47.40;;;;;;5010420;28;20038;-79
2022/06/16 09:45:17;;;;;;;5.72;1.90;;;25.50;45.60;;;;;;4997738;28;20124;-79
2022/06/16 09:48:06;;;;;;;5.63;1.60;;;25.70;41.60;;;;;;5007991;28;20029;-78
2022/06/16 09:50:43;;;;;;;3.03;1.38;;;25.80;46.30;;;;;;5007238;28;20035;-77
2022/06/16 09:53:20;;;;;;;6.13;1.60;;;26.00;45.10;;;;;;5007265;28;20511;-77
2022/06/16 09:55:55;;;;;;;4.35;1.25;;;26.00;47.00;;;;;;5008816;28;20022;-77
2022/06/16 09:58:52;;;;;;;3.30;1.55;;;26.10;46.30;;;;;;5008723;28;20345;-80
2022/06/16 10:01:20;;;;;;;4.90;1.55;;;26.20;42.10;;;;;;5009314;28;20160;-78
2022/06/16 10:03:49;;;;;;;5.43;1.27;;;26.40;43.50;;;;;;4994985;28;20089;-80
2022/06/16 10:06:32;;;;;;;4.20;1.27;;;26.60;48.50;;;;;;5008804;28;20026;-79
2022/06/16 10:09:28;;;;;;;5.53;1.10;;;26.60;47.20;;;;;;5005828;28;20030;-78
2022/06/16 10:12:36;;;;;;;4.80;1.08;;;26.90;48.90;;;;;;5005124;28;20763;-77
2022/06/16 10:15:13;;;;;;;8.70;2.35;;;27.00;49.60;;;;;;5005595;28;20037;-80
2022/06/16 10:17:42;;;;;;;4.55;1.50;;;27.00;40.90;;;;;;5006016;28;20266;-77
2022/06/16 10:20:09;;;;;;;3.70;1.13;;;27.10;45.10;;;;;;5007018;28;20029;-78
2022/06/16 10:22:37;;;;;;;12.15;1.92;;;27.10;42.40;;;;;;5008414;28;20100;-81
2022/06/16 10:25:22;;;;;;;4.07;1.48;;;27.20;41.70;;;;;;5005528;28;20136;-79
2022/06/16 10:28:02;;;;;;;4.13;1.80;;;27.20;44.30;;;;;;5006106;28;20040;-79
2022/06/16 10:30:35;;;;;;;5.97;1.88;;;27.20;46.90;;;;;;5003251;28;20044;-78
2022/06/16 10:33:18;;;;;;;11.40;2.17;;;27.20;45.40;;;;;;5006612;28;20057;-79
2022/06/16 10:35:50;;;;;;;4.88;1.40;;;27.10;43.50;;;;;;5005616;28;20106;-78
2022/06/16 10:38:41;;;;;;;3.97;1.40;;;27.20;44.50;;;;;;5006648;28;20045;-78
2022/06/16 10:41:33;;;;;;;3.17;1.20;;;27.40;45.00;;;;;;5004740;28;20292;-79
2022/06/16 10:44:02;;;;;;;7.20;2.20;;;27.60;46.00;;;;;;5010647;28;20559;-80
2022/06/16 10:46:36;;;;;;;4.95;1.52;;;27.80;44.00;;;;;;5004944;28;20045;-77
2022/06/16 10:49:06;;;;;;;5.88;1.77;;;27.80;46.10;;;;;;5005290;28;20041;-79
2022/06/16 10:51:46;;;;;;;4.82;1.60;;;27.90;42.10;;;;;;5005076;28;20112;-77
2022/06/16 10:54:32;;;;;;;;;;;28.00;46.90;;;;;;5004291;28;20037;-78
2022/06/16 10:57:15;;;;;;;5.53;1.83;;;27.90;42.60;;;;;;5006475;28;19913;-76
2022/06/16 10:59:49;;;;;;;5.28;1.95;;;28.10;42.70;;;;;;5004291;28;20033;-76
2022/06/16 11:02:21;;;;;;;2.88;1.17;;;28.30;43.30;;;;;;4987090;28;20065;-76
2022/06/16 11:04:54;;;;;;;5.15;1.38;;;28.20;47.90;;;;;;5004144;28;20042;-76
2022/06/16 11:07:22;;;;;;;4.53;1.40;;;28.10;47.30;;;;;;5004936;28;20030;-76
2022/06/16 11:09:48;;;;;;;5.63;1.73;;;27.90;41.50;;;;;;5003960;28;20022;-78
2022/06/16 11:12:14;;;;;;;4.13;1.73;;;27.90;47.80;;;;;;5005752;28;20681;-79
2022/06/16 11:14:48;;;;;;;4.00;1.73;;;28.00;38.60;;;;;;5006299;28;20117;-79
2022/06/16 11:17:25;;;;;;;4.63;1.90;;;28.20;39.10;;;;;;5009342;28;20077;-80
2022/06/16 11:19:58;;;;;;;4.13;1.60;;;28.30;39.00;;;;;;5010738;28;20436;-80
2022/06/16 11:22:32;;;;;;;4.65;1.40;;;28.30;43.50;;;;;;5006500;28;20096;-78
2022/06/16 11:25:28;;;;;;;5.93;1.50;;;28.30;42.20;;;;;;5004913;28;20078;-79
2022/06/16 11:28:12;;;;;;;3.80;1.40;;;28.30;44.80;;;;;;4981547;28;20046;-78
2022/06/16 11:30:43;;;;;;;3.03;1.08;;;28.50;44.80;;;;;;4989239;28;20022;-78
2022/06/16 11:36:22;;;;;;;5.03;2.20;;;28.50;39.60;;;;;;5007012;28;20073;-81
2022/06/16 11:39:10;;;;;;;4.60;1.85;;;28.20;39.50;;;;;;5007113;28;20456;-80
2022/06/16 11:41:40;;;;;;;5.38;1.60;;;28.30;44.00;;;;;;5017438;28;20022;-79
2022/06/16 11:44:15;;;;;;;2.45;1.00;;;28.30;39.80;;;;;;5008121;28;20029;-80
2022/06/16 11:46:58;;;;;;;3.92;1.58;;;28.40;48.60;;;;;;5006936;28;23016;-79
2022/06/16 11:49:42;;;;;;;4.28;1.20;;;28.60;43.60;;;;;;5006037;28;20137;-78
2022/06/16 11:52:47;;;;;;;5.90;1.30;;;28.90;43.40;;;;;;5004512;28;20485;-77
2022/06/16 11:55:19;;;;;;;4.63;1.67;;;29.00;44.30;;;;;;5002537;28;20061;-80
2022/06/16 11:58:07;;;;;;;4.10;1.40;;;29.00;42.80;;;;;;5006662;28;20030;-77
2022/06/16 12:00:49;;;;;;;4.80;1.65;;;28.90;44.20;;;;;;5004646;28;20022;-79
2022/06/16 12:03:33;;;;;;;2.38;1.25;;;28.80;43.30;;;;;;5008149;28;20206;-78
2022/06/16 12:06:21;;;;;;;4.22;1.67;;;28.90;44.90;;;;;;5010578;28;20123;-78
2022/06/16 12:09:08;;;;;;;4.43;1.95;;;28.80;38.60;;;;;;5012552;28;20097;-76
2022/06/16 12:11:41;;;;;;;3.03;1.42;;;28.90;38.40;;;;;;5024045;28;20021;-78
2022/06/16 12:14:40;;;;;;;5.65;1.55;;;29.00;45.80;;;;;;5017666;28;20033;-78
2022/06/16 12:17:28;;;;;;;3.15;1.17;;;29.20;38.60;;;;;;4964061;28;20184;-77
2022/06/16 12:20:24;;;;;;;3.75;1.70;;;29.20;42.10;;;;;;5007685;28;20046;-76
2022/06/16 12:23:35;;;;;;;3.35;1.40;;;29.20;43.40;;;;;;5009938;28;20030;-78
2022/06/16 12:26:32;;;;;;;3.33;1.20;;;29.00;41.70;;;;;;4961727;28;20049;-79
2022/06/16 12:29:05;;;;;;;3.17;1.10;;;29.10;49.20;;;;;;5007878;28;20061;-77
2022/06/16 12:31:44;;;;;;;4.65;1.27;;;29.20;45.00;;;;;;5006595;28;20232;-76
2022/06/16 12:34:19;;;;;;;6.13;1.45;;;29.20;49.20;;;;;;4988015;28;20018;-76
2022/06/16 12:36:50;;;;;;;4.88;1.40;;;29.00;47.30;;;;;;4987502;28;20121;-75
2022/06/16 12:39:31;;;;;;;4.70;1.48;;;28.70;46.80;;;;;;5005213;28;20030;-76
2022/06/16 12:42:04;;;;;;;5.78;1.42;;;28.40;49.60;;;;;;4989224;28;20030;-76
2022/06/16 12:44:38;;;;;;;7.95;2.00;;;28.20;48.20;;;;;;5007462;28;20030;-75
2022/06/16 12:47:19;;;;;;;4.65;1.85;;;28.10;44.80;;;;;;5007392;28;20028;-76
2022/06/16 12:49:59;;;;;;;5.38;1.30;;;28.10;42.20;;;;;;4989657;28;20036;-77
2022/06/16 12:52:39;;;;;;;6.22;1.83;;;28.40;47.60;;;;;;5005832;28;20026;-77
2022/06/16 12:55:24;;;;;;;7.05;1.80;;;28.70;39.10;;;;;;5007463;28;20033;-76
2022/06/16 12:58:13;;;;;;;5.88;1.50;;;29.00;41.70;;;;;;5006597;28;20396;-75
2022/06/16 13:00:45;;;;;;;4.95;2.00;;;29.10;44.50;;;;;;5006453;28;20105;-77
2022/06/16 13:03:40;;;;;;;5.93;1.90;;;29.20;44.40;;;;;;5007940;28;20507;-75
2022/06/16 13:06:06;;;;;;;3.00;1.27;;;29.20;39.40;;;;;;4990744;28;20493;-78
2022/06/16 13:08:38;;;;;;;4.85;1.63;;;29.10;46.60;;;;;;5007496;28;20108;-78
2022/06/16 13:11:08;;;;;;;5.43;1.63;;;28.90;47.40;;;;;;5009057;28;20026;-77
2022/06/16 13:13:43;;;;;;;3.45;1.50;;;29.00;40.90;;;;;;5008203;28;20026;-76
2022/06/16 13:16:09;;;;;;;4.30;2.05;;;29.30;43.30;;;;;;5005760;28;20018;-76
2022/06/16 13:18:45;;;;;;;3.33;1.70;;;29.50;39.80;;;;;;4996967;28;20026;-76
2022/06/16 13:21:23;;;;;;;4.43;1.55;;;29.80;38.00;;;;;;5006717;28;20021;-76
2022/06/16 13:23:55;;;;;;;2.95;1.13;;;29.90;45.50;;;;;;5007096;28;20679;-76
2022/06/16 13:26:32;;;;;;;3.10;1.20;;;30.10;42.10;;;;;;5005760;28;20797;-75
2022/06/16 13:29:06;;;;;;;4.65;1.67;;;30.20;44.80;;;;;;5006405;28;20383;-78
2022/06/16 13:31:55;;;;;;;2.83;1.20;;;30.10;46.40;;;;;;5006792;28;20029;-75
2022/06/16 13:34:51;;;;;;;7.55;1.70;;;29.80;46.60;;;;;;5006313;28;20033;-77
2022/06/16 13:37:29;;;;;;;3.65;1.42;;;29.50;44.40;;;;;;5007237;28;20056;-78
2022/06/16 13:40:23;;;;;;;5.30;1.20;;;29.20;45.30;;;;;;5008622;28;20041;-78
2022/06/16 13:42:55;;;;;;;6.40;1.60;;;29.10;50.00;;;;;;5007182;28;20022;-78